Time;durP1;ratioP1;P1;durP2;ratioP2;P2;SDS_P1;SDS_P2;PMS_P1;PMS_P2;Temp;Humidity;BMP_temperature;BMP_pressure;BME280_temperature;BME280_humidity;BME280_pressure;Samples;Min_cycle;Max_cycle;Signal;HPM_P1;HPM_P2
2024/01/07 00:02:13;;;;;;;24.57;8.67;;;;;;;-6.59;91.22;100227.50;4261445;28;25078;-68
2024/01/07 00:04:40;;;;;;;22.67;7.97;;;;;;;-6.59;91.02;100218.72;4250336;28;20237;-69
2024/01/07 00:07:07;;;;;;;25.67;9.37;;;;;;;-6.61;91.05;100217.94;4263909;28;20283;-66
2024/01/07 00:09:33;;;;;;;25.47;8.30;;;;;;;-6.71;91.41;100212.03;4259830;28;21803;-69
2024/01/07 00:12:00;;;;;;;29.93;9.57;;;;;;;-6.69;91.87;100218.16;4251481;28;20242;-71
2024/01/07 00:14:26;;;;;;;28.47;10.13;;;;;;;-6.64;91.71;100224.13;4256280;28;22654;-71
2024/01/07 00:16:53;;;;;;;26.67;10.07;;;;;;;-6.73;91.90;100217.38;4261674;28;23759;-66
2024/01/07 00:19:20;;;;;;;21.57;9.07;;;;;;;-6.59;91.36;100221.38;4260602;28;20423;-70
2024/01/07 00:21:47;;;;;;;25.57;9.27;;;;;;;-6.69;91.70;100221.66;4237217;28;20241;-69
2024/01/07 00:24:13;;;;;;;25.87;8.67;;;;;;;-6.68;91.75;100223.34;4247961;28;20404;-67
2024/01/07 00:26:40;;;;;;;25.90;10.00;;;;;;;-6.69;91.75;100229.56;4262691;28;23002;-68
2024/01/07 00:29:07;;;;;;;21.73;7.67;;;;;;;-6.71;92.08;100226.09;4272723;28;20229;-66
2024/01/07 00:31:33;;;;;;;24.43;9.93;;;;;;;-6.79;92.46;100216.66;4261254;28;20233;-67
2024/01/07 00:34:00;;;;;;;27.83;10.23;;;;;;;-6.72;92.15;100231.41;4253198;28;20359;-67
2024/01/07 00:36:26;;;;;;;21.73;8.37;;;;;;;-6.66;91.98;100227.72;4254247;28;23435;-65
2024/01/07 00:38:53;;;;;;;23.93;8.73;;;;;;;-6.70;92.56;100233.09;4257340;28;21501;-71
2024/01/07 00:41:20;;;;;;;31.50;9.60;;;;;;;-6.66;92.36;100243.50;4253879;28;20233;-67
2024/01/07 00:43:46;;;;;;;25.73;10.00;;;;;;;-6.75;92.60;100245.50;4251582;28;20234;-67
2024/01/07 00:46:13;;;;;;;26.87;9.60;;;;;;;-6.66;92.75;100243.50;4261737;28;20243;-69
2024/01/07 00:48:39;;;;;;;26.63;9.43;;;;;;;-6.62;91.91;100240.75;4262650;28;20342;-68
2024/01/07 00:51:06;;;;;;;25.93;9.27;;;;;;;-6.62;91.87;100246.03;4252434;28;21388;-69
2024/01/07 00:53:33;;;;;;;31.47;9.60;;;;;;;-6.64;92.37;100249.59;4257156;28;21190;-67
2024/01/07 00:55:59;;;;;;;25.87;9.53;;;;;;;-6.57;91.98;100241.47;4259742;28;20420;-70
2024/01/07 00:58:26;;;;;;;29.53;9.43;;;;;;;-6.56;91.76;100245.84;4251497;28;20225;-69
2024/01/07 01:00:53;;;;;;;29.40;10.23;;;;;;;-6.55;91.42;100242.31;4252144;28;21055;-66
2024/01/07 01:03:21;;;;;;;25.20;9.13;;;;;;;-6.53;91.78;100250.16;4255557;28;20360;-66
2024/01/07 01:05:48;;;;;;;23.77;9.40;;;;;;;-6.56;92.25;100248.47;4257190;28;20225;-68
2024/01/07 01:08:14;;;;;;;22.83;9.43;;;;;;;-6.58;92.57;100254.69;4273155;28;20530;-69
2024/01/07 01:10:41;;;;;;;26.33;9.30;;;;;;;-6.51;91.70;100258.03;4248860;28;22511;-70
2024/01/07 01:13:07;;;;;;;25.03;10.00;;;;;;;-6.55;92.23;100262.53;4250523;28;20256;-69
2024/01/07 01:15:34;;;;;;;28.00;9.90;;;;;;;-6.42;91.81;100255.16;4251588;28;20233;-68
2024/01/07 01:18:01;;;;;;;23.03;8.83;;;;;;;-6.46;91.36;100256.13;4255998;28;20229;-66
2024/01/07 01:20:28;;;;;;;24.87;8.83;;;;;;;-6.46;91.21;100249.09;4253221;28;21459;-69
2024/01/07 01:22:55;;;;;;;17.67;7.57;;;;;;;-6.44;90.87;100263.06;4238690;28;20311;-69
2024/01/07 01:25:21;;;;;;;19.73;7.40;;;;;;;-6.52;90.94;100259.78;4254080;28;20237;-68
2024/01/07 01:27:48;;;;;;;20.33;8.57;;;;;;;-6.52;90.58;100259.78;4252898;28;20382;-67
2024/01/07 01:30:14;;;;;;;19.10;7.87;;;;;;;-6.50;90.87;100252.72;4258849;28;20668;-69
2024/01/07 01:32:41;;;;;;;22.47;7.97;;;;;;;-6.49;90.77;100259.72;4259769;28;20300;-70
2024/01/07 01:35:08;;;;;;;19.80;7.83;;;;;;;-6.43;90.00;100254.25;4261196;28;20244;-70
2024/01/07 01:37:35;;;;;;;17.00;7.13;;;;;;;-6.43;89.66;100250.78;4262578;28;20370;-67
2024/01/07 01:40:03;;;;;;;17.50;7.00;;;;;;;-6.45;89.69;100258.69;4262148;28;20233;-69
2024/01/07 01:42:30;;;;;;;18.90;7.80;;;;;;;-6.46;89.70;100256.13;4258274;28;20237;-68
2024/01/07 01:45:01;;;;;;;23.60;8.47;;;;;;;-6.37;89.53;100250.59;4267341;28;21600;-69
2024/01/07 01:47:29;;;;;;;17.67;7.17;;;;;;;-6.28;89.34;100258.25;4269687;28;20717;-71
2024/01/07 01:49:56;;;;;;;17.77;6.97;;;;;;;-6.30;89.50;100249.50;4260269;28;20377;-69
2024/01/07 01:52:24;;;;;;;18.20;7.37;;;;;;;-6.29;89.67;100251.25;4259416;28;26274;-67
2024/01/07 01:54:51;;;;;;;17.83;7.17;;;;;;;-6.32;89.75;100242.56;4263486;28;25218;-67
2024/01/07 01:57:22;;;;;;;14.57;6.80;;;;;;;-6.35;89.96;100246.16;4258096;28;20230;-69
2024/01/07 01:59:49;;;;;;;20.30;7.67;;;;;;;-6.31;89.97;100246.94;4255826;28;20229;-68
2024/01/07 02:02:16;;;;;;;17.43;7.57;;;;;;;-6.41;90.01;100247.19;4257034;28;20233;-70
2024/01/07 02:04:42;;;;;;;20.27;7.23;;;;;;;-6.49;90.77;100251.81;4258278;28;21143;-69
2024/01/07 02:07:10;;;;;;;18.30;7.30;;;;;;;-6.49;91.10;100248.28;4252048;28;20516;-68
2024/01/07 02:09:36;;;;;;;16.33;6.67;;;;;;;-6.55;91.73;100258.09;4249382;28;21007;-71
2024/01/07 02:12:04;;;;;;;18.40;6.83;;;;;;;-6.61;91.40;100253.03;4257772;28;20494;-67
2024/01/07 02:14:30;;;;;;;17.83;6.17;;;;;;;-6.72;92.30;100253.31;4264699;28;20238;-69
2024/01/07 02:16:57;;;;;;;16.47;6.50;;;;;;;-6.69;91.97;100247.97;4262560;28;20265;-69
2024/01/07 02:19:24;;;;;;;19.73;6.87;;;;;;;-6.81;92.39;100247.44;4252352;28;20932;-68
2024/01/07 02:21:51;;;;;;;15.07;6.00;;;;;;;-6.74;91.78;100239.31;4265910;28;20412;-69
2024/01/07 02:24:18;;;;;;;18.20;7.13;;;;;;;-6.84;92.52;100253.66;4284551;28;20317;-67
2024/01/07 02:26:44;;;;;;;13.97;6.57;;;;;;;-6.92;91.87;100250.38;4253622;28;21927;-69
2024/01/07 02:29:11;;;;;;;19.63;7.00;;;;;;;-6.96;92.24;100259.25;4244482;28;20434;-68
2024/01/07 02:31:37;;;;;;;17.43;6.57;;;;;;;-6.93;91.60;100257.38;4256194;28;20237;-72
2024/01/07 02:34:04;;;;;;;18.97;6.47;;;;;;;-6.95;92.02;100253.06;4274148;28;20238;-69
2024/01/07 02:36:31;;;;;;;24.60;7.80;;;;;;;-7.18;92.54;100251.91;4251911;28;20238;-69
2024/01/07 02:38:57;;;;;;;20.47;6.70;;;;;;;-7.20;93.12;100256.34;4256197;28;20256;-68
2024/01/07 02:41:25;;;;;;;19.03;6.93;;;;;;;-7.25;93.61;100253.81;4259583;28;21230;-70
2024/01/07 02:43:52;;;;;;;17.60;7.57;;;;;;;-7.19;93.34;100252.81;4259988;28;23853;-68
2024/01/07 02:46:20;;;;;;;19.73;7.63;;;;;;;-7.32;93.20;100257.50;4234787;28;20878;-69
2024/01/07 02:48:46;;;;;;;20.53;7.87;;;;;;;-7.36;93.54;100250.63;4250196;28;21628;-67
2024/01/07 02:51:13;;;;;;;21.80;7.63;;;;;;;-7.39;93.19;100251.56;4261745;28;21187;-67
2024/01/07 02:53:39;;;;;;;23.00;8.00;;;;;;;-7.38;93.31;100258.56;4251732;28;20814;-70
2024/01/07 02:56:08;;;;;;;23.47;9.17;;;;;;;-7.54;94.02;100246.69;4257637;28;23410;-68
2024/01/07 02:58:35;;;;;;;23.53;9.33;;;;;;;-7.37;93.55;100251.50;4229337;28;20379;-69
2024/01/07 03:01:02;;;;;;;24.13;8.87;;;;;;;-7.49;93.27;100256.19;4256096;28;20361;-69
2024/01/07 03:03:28;;;;;;;23.40;8.53;;;;;;;-7.56;93.63;100253.72;4255715;28;21584;-67
2024/01/07 03:05:55;;;;;;;20.80;7.73;;;;;;;-7.58;93.54;100256.41;4259509;28;20228;-68
2024/01/07 03:08:21;;;;;;;25.33;8.53;;;;;;;-7.71;94.00;100244.47;4239318;28;20236;-69
2024/01/07 03:10:48;;;;;;;19.33;8.40;;;;;;;-7.68;93.75;100247.88;4256065;28;20242;-66
2024/01/07 03:13:14;;;;;;;22.70;7.80;;;;;;;-7.70;93.74;100249.69;4275975;28;20237;-67
2024/01/07 03:15:41;;;;;;;26.77;8.97;;;;;;;-7.85;94.28;100255.28;4256347;28;20231;-66
2024/01/07 03:18:07;;;;;;;23.70;9.07;;;;;;;-7.78;93.98;100254.25;4262318;28;20240;-69
2024/01/07 03:20:34;;;;;;;29.13;8.93;;;;;;;-7.78;93.99;100248.13;4258515;28;20232;-68
2024/01/07 03:23:01;;;;;;;21.10;8.77;;;;;;;-7.83;94.00;100251.72;4259243;28;20324;-69
2024/01/07 03:25:28;;;;;;;20.27;8.30;;;;;;;-7.78;94.13;100258.66;4255903;28;20666;-69
2024/01/07 03:27:55;;;;;;;24.40;9.10;;;;;;;-7.83;93.99;100262.22;4257059;28;20233;-69
2024/01/07 03:30:21;;;;;;;21.33;8.83;;;;;;;-7.88;94.48;100253.59;4259578;28;20229;-68
2024/01/07 03:32:48;;;;;;;24.53;9.40;;;;;;;-7.81;94.20;100263.06;4254049;28;20237;-69
2024/01/07 03:35:15;;;;;;;18.70;8.20;;;;;;;-7.81;94.19;100256.94;4254409;28;21023;-68
2024/01/07 03:37:41;;;;;;;25.67;9.50;;;;;;;-7.85;93.78;100256.13;4242954;28;20431;-67
2024/01/07 03:40:14;;;;;;;26.53;9.50;;;;;;;-7.80;93.99;100258.66;4247595;28;21742;-68
2024/01/07 03:42:41;;;;;;;21.10;7.87;;;;;;;-7.89;93.97;100257.13;4259645;28;20636;-68
2024/01/07 03:45:08;;;;;;;22.80;9.27;;;;;;;-7.82;93.38;100250.81;4260741;28;20237;-67
2024/01/07 03:47:34;;;;;;;22.07;7.77;;;;;;;-7.91;93.17;100248.41;4263601;28;20283;-69
2024/01/07 03:50:01;;;;;;;19.80;8.60;;;;;;;-7.85;93.01;100261.41;4254397;28;20434;-67
2024/01/07 03:52:29;;;;;;;25.43;8.97;;;;;;;-7.81;93.27;100256.94;4256179;28;20233;-68
2024/01/07 03:54:56;;;;;;;20.57;7.67;;;;;;;-7.84;92.91;100262.28;4262705;28;20236;-67
2024/01/07 03:57:22;;;;;;;19.37;8.50;;;;;;;-7.83;92.76;100271.88;4255439;28;23060;-68
2024/01/07 03:59:49;;;;;;;23.87;8.60;;;;;;;-7.98;93.35;100268.72;4246306;28;20232;-67
2024/01/07 04:02:16;;;;;;;19.27;7.57;;;;;;;-7.92;93.23;100277.34;4254618;28;20251;-69
2024/01/07 04:04:43;;;;;;;22.97;8.83;;;;;;;-7.89;92.86;100265.00;4259381;28;20232;-70
2024/01/07 04:07:09;;;;;;;27.00;8.67;;;;;;;-7.94;92.83;100268.63;4259996;28;20240;-67
2024/01/07 04:09:36;;;;;;;23.67;9.00;;;;;;;-7.96;92.59;100276.56;4263487;28;20852;-69
2024/01/07 04:12:03;;;;;;;22.83;9.07;;;;;;;-7.87;92.63;100264.97;4259507;28;21804;-67
2024/01/07 04:14:33;;;;;;;24.57;8.13;;;;;;;-7.92;92.82;100272.09;4260279;28;20357;-66
2024/01/07 04:17:00;;;;;;;21.17;7.93;;;;;;;-8.05;93.05;100263.63;4257481;28;20235;-70
2024/01/07 04:19:27;;;;;;;21.53;8.60;;;;;;;-8.02;92.66;100272.28;4255924;28;20411;-70
2024/01/07 04:21:53;;;;;;;17.20;7.50;;;;;;;-8.03;92.24;100270.56;4252249;28;23319;-67
2024/01/07 04:24:20;;;;;;;20.73;7.83;;;;;;;-8.01;91.98;100260.03;4258071;28;20242;-66
2024/01/07 04:26:47;;;;;;;25.33;8.83;;;;;;;-8.02;92.08;100269.66;4272160;28;20236;-69
2024/01/07 04:29:13;;;;;;;20.83;8.10;;;;;;;-7.99;92.22;100266.97;4259142;28;20434;-67
2024/01/07 04:31:40;;;;;;;18.23;7.07;;;;;;;-7.99;92.20;100269.59;4256702;28;21743;-68
2024/01/07 04:34:07;;;;;;;18.17;6.57;;;;;;;-8.06;92.64;100275.91;4272190;28;20242;-66
2024/01/07 04:36:33;;;;;;;19.00;7.10;;;;;;;-8.07;92.58;100268.03;4253123;28;20270;-66
2024/01/07 04:39:00;;;;;;;19.03;7.37;;;;;;;-8.10;92.08;100268.97;4257682;28;20233;-68
2024/01/07 04:41:26;;;;;;;20.03;6.90;;;;;;;-8.07;92.20;100271.53;4250562;28;20225;-69
2024/01/07 04:43:53;;;;;;;19.63;7.20;;;;;;;-8.15;92.36;100276.09;4235654;28;20243;-66
2024/01/07 04:46:20;;;;;;;17.53;7.47;;;;;;;-8.07;91.80;100281.16;4255210;28;20237;-67
2024/01/07 04:48:46;;;;;;;20.80;8.17;;;;;;;-8.21;92.12;100278.84;4252188;28;20236;-71
2024/01/07 04:51:13;;;;;;;16.17;6.60;;;;;;;-8.08;91.76;100274.22;4266202;28;22122;-69
2024/01/07 04:53:49;;;;;;;15.80;6.63;;;;;;;-8.09;91.82;100270.69;4258333;28;23129;-68
2024/01/07 04:56:15;;;;;;;20.27;7.83;;;;;;;-8.09;92.25;100278.56;4262495;28;21088;-69
2024/01/07 04:58:42;;;;;;;22.00;7.80;;;;;;;-8.00;91.81;100285.38;4259418;28;23859;-68
2024/01/07 05:01:08;;;;;;;18.07;7.67;;;;;;;-8.10;92.10;100289.97;4257257;28;20723;-69
2024/01/07 05:03:35;;;;;;;16.63;6.70;;;;;;;-8.05;92.56;100298.66;4257935;28;20221;-69
2024/01/07 05:06:02;;;;;;;20.43;7.07;;;;;;;-8.11;91.83;100285.63;4254280;28;20246;-67
2024/01/07 05:08:28;;;;;;;18.40;7.60;;;;;;;-8.02;91.71;100289.81;4267512;28;20265;-69
2024/01/07 05:10:55;;;;;;;19.17;7.17;;;;;;;-8.02;92.24;100284.56;4258747;28;20233;-66
2024/01/07 05:13:22;;;;;;;20.43;7.67;;;;;;;-7.96;92.11;100292.31;4249138;28;20306;-66
2024/01/07 05:15:53;;;;;;;19.53;6.20;;;;;;;-7.93;91.04;100291.38;4271001;28;23261;-69
2024/01/07 05:18:22;;;;;;;17.67;8.03;;;;;;;-8.06;91.28;100291.66;4257793;28;21360;-66
2024/01/07 05:20:50;;;;;;;22.77;7.90;;;;;;;-8.04;91.57;100296.88;4260230;28;21102;-67
2024/01/07 05:23:16;;;;;;;23.27;8.07;;;;;;;-8.06;92.06;100291.66;4258582;28;20394;-66
2024/01/07 05:25:44;;;;;;;16.73;7.10;;;;;;;-8.01;91.37;100294.19;4255941;28;20232;-71
2024/01/07 05:28:11;;;;;;;19.17;7.40;;;;;;;-8.02;91.06;100298.56;4228497;28;21768;-68
2024/01/07 05:30:39;;;;;;;19.50;7.50;;;;;;;-8.10;91.67;100297.00;4271614;28;20237;-67
2024/01/07 05:33:05;;;;;;;20.33;7.60;;;;;;;-8.05;91.14;100297.75;4259299;28;20618;-68
2024/01/07 05:35:32;;;;;;;19.40;7.47;;;;;;;-8.16;91.22;100301.50;4242146;28;20295;-68
2024/01/07 05:37:58;;;;;;;17.40;7.70;;;;;;;-8.16;91.37;100298.88;4275408;28;20930;-68
2024/01/07 05:40:25;;;;;;;19.03;7.53;;;;;;;-8.21;91.07;100299.84;4267598;28;22864;-69
2024/01/07 05:42:51;;;;;;;17.07;7.07;;;;;;;-8.22;91.71;100313.88;4257130;28;21190;-66
2024/01/07 05:45:18;;;;;;;16.90;7.20;;;;;;;-8.25;91.93;100313.94;4251154;28;20230;-67
2024/01/07 05:47:44;;;;;;;21.70;7.33;;;;;;;-8.19;91.32;100305.91;4259079;28;20241;-68
2024/01/07 05:50:11;;;;;;;18.27;7.33;;;;;;;-8.27;91.52;100314.81;4258439;28;20373;-68
2024/01/07 05:52:37;;;;;;;17.13;7.30;;;;;;;-8.24;91.61;100306.03;4255653;28;23332;-69
2024/01/07 05:55:05;;;;;;;23.57;7.90;;;;;;;-8.31;91.13;100307.91;4253746;28;20250;-67
2024/01/07 05:57:31;;;;;;;20.97;7.43;;;;;;;-8.33;91.48;100298.34;4257746;28;20295;-69
2024/01/07 05:59:58;;;;;;;19.50;7.70;;;;;;;-8.35;91.35;100302.75;4258192;28;21413;-70
2024/01/07 06:02:24;;;;;;;17.87;6.73;;;;;;;-8.37;91.36;100297.53;4260134;28;20230;-69
2024/01/07 06:04:51;;;;;;;15.73;7.23;;;;;;;-8.33;91.58;100316.72;4230333;28;20362;-68
2024/01/07 06:07:18;;;;;;;18.40;7.20;;;;;;;-8.17;90.88;100309.38;4259906;28;20273;-67
2024/01/07 06:09:44;;;;;;;17.30;7.10;;;;;;;-8.15;90.91;100307.59;4258537;28;20364;-70
2024/01/07 06:12:11;;;;;;;17.23;7.20;;;;;;;-8.18;90.84;100307.66;4253027;28;20256;-71
2024/01/07 06:14:37;;;;;;;17.43;7.07;;;;;;;-8.25;91.39;100309.56;4252524;28;20288;-66
2024/01/07 06:17:04;;;;;;;17.47;7.87;;;;;;;-8.38;91.73;100316.81;4261837;28;22475;-67
2024/01/07 06:19:31;;;;;;;25.87;7.43;;;;;;;-8.29;91.42;100315.75;4265335;28;20298;-69
2024/01/07 06:21:57;;;;;;;18.57;7.43;;;;;;;-8.28;91.35;100318.38;4254639;28;20248;-69
2024/01/07 06:24:24;;;;;;;15.27;7.03;;;;;;;-8.19;91.37;100312.06;4257691;28;22309;-69
2024/01/07 06:26:50;;;;;;;16.77;6.57;;;;;;;-8.19;91.03;100306.81;4248777;28;20268;-67
2024/01/07 06:29:17;;;;;;;18.13;6.10;;;;;;;-8.10;90.62;100316.25;4266502;28;20259;-69
2024/01/07 06:31:45;;;;;;;19.00;7.20;;;;;;;-8.28;91.59;100328.00;4263250;28;20229;-68
2024/01/07 06:34:14;;;;;;;19.83;7.30;;;;;;;-8.20;91.39;100325.22;4258703;28;25145;-67
2024/01/07 06:36:41;;;;;;;23.80;7.80;;;;;;;-8.15;90.83;100326.84;4263608;28;20244;-69
2024/01/07 06:39:08;;;;;;;15.83;7.20;;;;;;;-8.21;91.24;100331.38;4252970;28;20852;-66
2024/01/07 06:41:35;;;;;;;27.37;8.30;;;;;;;-8.20;91.35;100343.63;4257597;28;20325;-67
2024/01/07 06:44:03;;;;;;;23.57;8.17;;;;;;;-8.14;91.08;100348.75;4262881;28;20307;-67
2024/01/07 06:46:29;;;;;;;17.80;6.67;;;;;;;-8.16;91.18;100340.91;4253541;28;21335;-68
2024/01/07 06:48:56;;;;;;;18.53;6.60;;;;;;;-8.13;90.87;100353.94;4257337;28;20233;-68
2024/01/07 06:51:22;;;;;;;21.93;7.93;;;;;;;-8.22;90.59;100346.25;4259264;28;25792;-67
2024/01/07 06:53:50;;;;;;;14.63;5.97;;;;;;;-8.24;90.78;100358.56;4256613;28;20332;-66
2024/01/07 06:56:16;;;;;;;23.77;7.90;;;;;;;-8.23;91.46;100351.53;4263268;28;20245;-69
2024/01/07 06:58:44;;;;;;;18.30;7.00;;;;;;;-8.15;90.91;100357.50;4263245;28;20239;-69
2024/01/07 07:01:11;;;;;;;14.77;6.17;;;;;;;-8.04;90.58;100346.78;4270410;28;22091;-69
2024/01/07 07:03:40;;;;;;;19.93;6.90;;;;;;;-8.14;91.11;100354.84;4261181;28;20795;-66
2024/01/07 07:06:07;;;;;;;18.13;7.00;;;;;;;-8.15;91.00;100358.34;4262595;28;20236;-69
2024/01/07 07:08:33;;;;;;;17.80;6.90;;;;;;;-8.06;91.17;100361.69;4265789;28;25358;-71
2024/01/07 07:11:00;;;;;;;20.70;8.13;;;;;;;-8.02;90.54;100356.34;4278821;28;20237;-68
2024/01/07 07:13:27;;;;;;;17.70;7.37;;;;;;;-8.01;90.96;100365.97;4274035;28;20300;-69
2024/01/07 07:15:57;;;;;;;22.30;8.10;;;;;;;-7.99;90.39;100361.56;4300363;28;20230;-69
2024/01/07 07:18:24;;;;;;;24.20;6.87;;;;;;;-7.97;90.49;100356.25;4279716;28;21707;-72
2024/01/07 07:20:51;;;;;;;19.60;8.30;;;;;;;-7.86;90.28;100367.44;4274761;28;22626;-70
2024/01/07 07:23:18;;;;;;;16.73;7.17;;;;;;;-7.74;90.00;100357.53;4274182;28;20512;-71
2024/01/07 07:25:44;;;;;;;18.50;7.60;;;;;;;-7.80;89.95;100369.03;4268144;28;20296;-72
2024/01/07 07:28:11;;;;;;;19.80;7.57;;;;;;;-7.76;89.84;100361.94;4254985;28;20249;-71
2024/01/07 07:30:37;;;;;;;20.90;7.10;;;;;;;-7.77;90.11;100363.72;4251498;28;20237;-73
2024/01/07 07:33:04;;;;;;;19.30;8.07;;;;;;;-7.76;89.68;100364.56;4262060;28;24566;-70
2024/01/07 07:35:31;;;;;;;20.07;6.90;;;;;;;-7.65;89.32;100363.44;4259616;28;21445;-70
2024/01/07 07:37:57;;;;;;;16.40;6.93;;;;;;;-7.65;89.23;100367.84;4249135;28;21110;-74
2024/01/07 07:40:24;;;;;;;19.17;6.87;;;;;;;-7.77;88.99;100355.84;4264063;28;20251;-71
2024/01/07 07:42:51;;;;;;;18.27;7.20;;;;;;;-7.62;88.79;100369.53;4260257;28;21590;-71
2024/01/07 07:45:17;;;;;;;17.60;6.30;;;;;;;-7.71;88.74;100373.25;4256360;28;20281;-70
2024/01/07 07:47:44;;;;;;;22.10;7.70;;;;;;;-7.65;88.92;100378.38;4261368;28;20617;-69
2024/01/07 07:50:12;;;;;;;20.37;7.80;;;;;;;-7.59;88.75;100378.22;4272506;28;20237;-71
2024/01/07 07:52:41;;;;;;;16.50;6.60;;;;;;;-7.66;89.07;100372.22;4260629;28;20623;-71
2024/01/07 07:55:07;;;;;;;16.83;6.80;;;;;;;-7.54;88.59;100371.09;4260057;28;20241;-72
2024/01/07 07:57:34;;;;;;;14.17;6.53;;;;;;;-7.50;88.13;100383.28;4249362;28;21023;-71
2024/01/07 08:00:02;;;;;;;18.67;7.53;;;;;;;-7.45;87.82;100383.19;4258925;28;21367;-69
2024/01/07 08:02:30;;;;;;;16.70;6.47;;;;;;;-7.55;88.30;100389.53;4264826;28;20305;-66
2024/01/07 08:04:57;;;;;;;19.30;6.97;;;;;;;-7.53;87.97;100379.88;4266591;28;20631;-75
2024/01/07 08:07:24;;;;;;;19.13;7.17;;;;;;;-7.40;87.64;100390.97;4274812;28;20285;-70
2024/01/07 08:09:51;;;;;;;16.77;6.83;;;;;;;-7.58;87.84;100377.34;4260123;28;20234;-70
2024/01/07 08:12:18;;;;;;;19.30;7.03;;;;;;;-7.51;87.77;100392.06;4262343;28;22541;-70
2024/01/07 08:14:44;;;;;;;14.07;6.17;;;;;;;-7.40;87.57;100388.34;4254928;28;20289;-70
2024/01/07 08:17:11;;;;;;;17.40;6.70;;;;;;;-7.43;87.98;100398.91;4239020;28;20378;-71
2024/01/07 08:19:38;;;;;;;15.60;6.20;;;;;;;-7.36;87.67;100401.38;4273267;28;22677;-72
2024/01/07 08:22:04;;;;;;;14.33;6.33;;;;;;;-7.35;87.34;100411.00;4255532;28;23896;-72
2024/01/07 08:24:31;;;;;;;14.90;6.03;;;;;;;-7.26;87.15;100409.06;4248446;28;20237;-71
2024/01/07 08:26:58;;;;;;;22.33;7.13;;;;;;;-7.26;86.07;100395.91;4261376;28;22816;-72
2024/01/07 08:29:25;;;;;;;13.93;5.50;;;;;;;-7.35;86.25;100416.25;4254842;28;21665;-71
2024/01/07 08:31:52;;;;;;;17.97;6.63;;;;;;;-7.40;87.13;100412.88;4260054;28;20456;-71
2024/01/07 08:34:19;;;;;;;19.10;7.10;;;;;;;-7.11;86.71;100406.06;4270119;28;26001;-73
2024/01/07 08:36:45;;;;;;;15.30;5.47;;;;;;;-7.19;85.93;100414.16;4250531;28;20343;-71
2024/01/07 08:39:15;;;;;;;13.97;6.33;;;;;;;-7.32;86.44;100420.56;4259179;28;20472;-72
2024/01/07 08:41:41;;;;;;;18.17;6.43;;;;;;;-7.39;86.44;100408.47;4263717;28;21558;-71
2024/01/07 08:44:08;;;;;;;15.93;6.30;;;;;;;-7.42;86.45;100408.53;4263398;28;20291;-70
2024/01/07 08:46:35;;;;;;;14.33;6.23;;;;;;;-7.41;86.88;100413.75;4253401;28;20380;-72
2024/01/07 08:49:02;;;;;;;15.13;6.57;;;;;;;-7.32;86.55;100407.41;4261530;28;21413;-72
2024/01/07 08:51:29;;;;;;;14.07;6.27;;;;;;;-7.30;86.39;100408.25;4262127;28;21164;-71
2024/01/07 08:53:58;;;;;;;17.63;6.17;;;;;;;-7.38;86.78;100415.44;4252171;28;20519;-71
2024/01/07 08:56:25;;;;;;;18.23;6.20;;;;;;;-7.31;87.16;100419.66;4268018;28;20407;-71
2024/01/07 08:58:52;;;;;;;14.83;6.67;;;;;;;-7.32;85.75;100415.31;4270116;28;20514;-72
2024/01/07 09:01:18;;;;;;;14.40;5.90;;;;;;;-7.31;85.41;100427.56;4256321;28;20230;-72
2024/01/07 09:03:45;;;;;;;19.07;7.10;;;;;;;-7.44;86.05;100428.75;4253978;28;22396;-73
2024/01/07 09:06:12;;;;;;;13.20;6.63;;;;;;;-7.50;86.62;100424.47;4279894;28;20262;-71
2024/01/07 09:08:38;;;;;;;14.43;5.57;;;;;;;-7.41;86.24;100426.06;4252991;28;20289;-71
2024/01/07 09:11:06;;;;;;;11.33;4.50;;;;;;;-7.32;85.77;100424.09;4275126;28;21093;-72
2024/01/07 09:13:33;;;;;;;18.07;6.40;;;;;;;-7.34;85.54;100425.88;4252662;28;21837;-71
2024/01/07 09:15:59;;;;;;;17.07;5.83;;;;;;;-7.32;85.33;100423.19;4252239;28;20233;-70
2024/01/07 09:18:26;;;;;;;16.30;6.93;;;;;;;-7.32;86.26;100425.81;4254367;28;22273;-73
2024/01/07 09:20:53;;;;;;;16.03;5.60;;;;;;;-7.27;86.09;100423.09;4252245;28;20597;-70
2024/01/07 09:23:21;;;;;;;18.60;6.70;;;;;;;-7.33;85.60;100432.88;4268953;28;21574;-72
2024/01/07 09:25:49;;;;;;;14.07;5.90;;;;;;;-7.35;86.00;100431.16;4260910;28;23526;-72
2024/01/07 09:28:15;;;;;;;15.03;6.13;;;;;;;-7.36;85.93;100430.28;4258720;28;20226;-74
2024/01/07 09:30:42;;;;;;;15.40;6.83;;;;;;;-7.26;85.62;100432.72;4263453;28;20389;-73
2024/01/07 09:33:08;;;;;;;13.20;5.63;;;;;;;-7.30;85.45;100433.72;4258130;28;20237;-72
2024/01/07 09:35:35;;;;;;;18.90;6.87;;;;;;;-7.29;85.37;100422.28;4271681;28;21029;-70
2024/01/07 09:38:02;;;;;;;14.10;6.63;;;;;;;-7.29;85.14;100411.78;4256405;28;20449;-72
2024/01/07 09:40:28;;;;;;;16.43;6.40;;;;;;;-7.25;84.66;100419.53;4254080;28;20569;-74
2024/01/07 09:42:55;;;;;;;18.13;7.17;;;;;;;-7.29;85.34;100423.13;4256254;28;22942;-73
2024/01/07 09:45:23;;;;;;;16.93;6.00;;;;;;;-7.24;85.46;100409.88;4244859;28;20475;-73
2024/01/07 09:47:49;;;;;;;18.17;6.60;;;;;;;-7.22;85.67;100416.84;4255946;28;23039;-74
2024/01/07 09:50:16;;;;;;;20.67;7.73;;;;;;;-7.15;85.23;100422.84;4251755;28;22026;-73
2024/01/07 09:52:44;;;;;;;19.40;7.00;;;;;;;-7.27;84.81;100418.72;4256630;28;20455;-72
2024/01/07 09:55:18;;;;;;;19.27;7.03;;;;;;;-7.37;84.75;100409.28;4263448;28;20229;-74
2024/01/07 09:57:45;;;;;;;18.87;6.77;;;;;;;-7.40;85.54;100422.53;4262795;28;21181;-71
2024/01/07 10:00:13;;;;;;;17.67;7.67;;;;;;;-7.40;85.80;100414.66;4255624;28;22134;-71
2024/01/07 10:02:41;;;;;;;19.47;7.53;;;;;;;-7.31;85.61;100417.03;4255516;28;20239;-71
2024/01/07 10:05:08;;;;;;;21.23;8.80;;;;;;;-7.37;85.80;100415.44;4255820;28;21859;-71
2024/01/07 10:07:34;;;;;;;16.90;7.83;;;;;;;-7.24;85.64;100420.41;4246077;28;20274;-72
2024/01/07 10:10:14;;;;;;;15.40;5.83;;;;;;;-7.34;85.65;100423.25;4273176;28;20286;-73
2024/01/07 10:12:43;;;;;;;15.85;7.15;;;;;;;-7.40;85.46;100412.88;4259420;28;20518;-72
2024/01/07 10:15:10;;;;;;;18.20;8.83;;;;;;;-7.39;86.19;100417.22;4258370;28;20340;-75
2024/01/07 10:17:38;;;;;;;19.70;9.00;;;;;;;-7.34;85.73;100417.13;4262040;28;20449;-73
2024/01/07 10:20:09;;;;;;;20.92;10.10;;;;;;;-7.33;85.67;100413.59;4243497;28;20478;-72
2024/01/07 10:22:39;;;;;;;19.80;9.57;;;;;;;-7.14;85.24;100416.69;4254960;28;21047;-74
2024/01/07 10:25:06;;;;;;;19.10;9.40;;;;;;;-7.06;84.84;100405.97;4261434;28;20453;-71
2024/01/07 10:27:36;;;;;;;20.10;9.30;;;;;;;-7.22;85.54;100411.56;4260883;28;24952;-70
2024/01/07 10:30:03;;;;;;;14.37;6.67;;;;;;;-7.33;85.85;100409.19;4257153;28;20263;-71
2024/01/07 10:32:30;;;;;;;19.00;7.73;;;;;;;-7.23;85.77;100412.47;4236574;28;21158;-73
2024/01/07 10:35:03;;;;;;;18.10;7.40;;;;;;;-7.24;86.28;100405.47;4259273;28;20234;-71
2024/01/07 10:37:30;;;;;;;23.73;7.97;;;;;;;-7.20;86.05;100411.53;4260683;28;20248;-71
2024/01/07 10:40:03;;;;;;;18.70;7.13;;;;;;;-7.23;86.01;100406.38;4256807;28;20255;-73
2024/01/07 10:42:33;;;;;;;18.03;7.37;;;;;;;-7.16;86.53;100405.31;4264303;28;20289;-70
2024/01/07 10:45:00;;;;;;;20.10;8.10;;;;;;;-7.13;86.58;100412.28;4259940;28;23800;-72
2024/01/07 10:47:31;;;;;;;16.53;7.27;;;;;;;-7.04;86.32;100409.44;4252467;28;20450;-71
2024/01/07 10:50:03;;;;;;;16.00;7.33;;;;;;;-7.10;85.55;100407.81;4259082;28;22397;-73
2024/01/07 10:52:32;;;;;;;17.33;7.70;;;;;;;-7.10;85.02;100417.47;4261630;28;20426;-69
2024/01/07 10:55:09;;;;;;;14.70;7.17;;;;;;;-7.37;86.24;100411.94;4258127;28;20294;-68
2024/01/07 10:57:47;;;;;;;19.10;7.70;;;;;;;-7.36;86.62;100421.56;4256620;28;20373;-72
2024/01/07 11:00:20;;;;;;;18.47;7.57;;;;;;;-7.29;86.20;100427.56;4260723;28;20854;-73
2024/01/07 11:03:19;;;;;;;17.27;7.30;;;;;;;-7.37;86.25;100425.06;4254053;28;22650;-75
2024/01/07 11:05:52;;;;;;;19.03;8.13;;;;;;;-7.47;86.79;100413.91;4276397;28;21576;-73
2024/01/07 11:08:28;;;;;;;14.80;7.03;;;;;;;-7.38;86.43;100418.06;4254834;28;20235;-71
2024/01/07 11:11:08;;;;;;;17.97;7.87;;;;;;;-7.32;86.12;100420.56;4266398;28;22856;-72
2024/01/07 11:13:37;;;;;;;23.53;8.83;;;;;;;-7.35;86.28;100418.03;4264322;28;20246;-71
2024/01/07 11:16:09;;;;;;;20.43;7.77;;;;;;;-7.26;86.75;100417.81;4257037;28;20278;-71
2024/01/07 11:18:45;;;;;;;16.17;6.83;;;;;;;-7.12;85.94;100417.47;4251504;28;20229;-71